sensor_id;sensor_type;location;lat;lon;timestamp;P1;P2;P0
83543;PMS5003;73487;54.448;-0.942;2023-11-21T00:00:54;1;1;0
83543;PMS5003;73487;54.448;-0.942;2023-11-21T00:03:54;2;1;0
83543;PMS5003;73487;54.448;-0.942;2023-11-21T00:06:54;2;2;1
83543;PMS5003;73487;54.448;-0.942;2023-11-21T00:09:54;3;2;1
83543;PMS5003;73487;54.448;-0.942;2023-11-21T00:12:54;2;2;0
83543;PMS5003;73487;54.448;-0.942;2023-11-21T00:15:54;2;1;0
83543;PMS5003;73487;54.448;-0.942;2023-11-21T00:19:24;3;1;0
83543;PMS5003;73487;54.448;-0.942;2023-11-21T00:22:24;3;1;0
83543;PMS5003;73487;54.448;-0.942;2023-11-21T00:25:24;4;4;1
83543;PMS5003;73487;54.448;-0.942;2023-11-21T00:28:24;1;1;0
83543;PMS5003;73487;54.448;-0.942;2023-11-21T00:31:24;4;3;0
83543;PMS5003;73487;54.448;-0.942;2023-11-21T00:34:24;2;1;0
83543;PMS5003;73487;54.448;-0.942;2023-11-21T00:37:24;4;2;0
83543;PMS5003;73487;54.448;-0.942;2023-11-21T00:40:24;1;1;0
83543;PMS5003;73487;54.448;-0.942;2023-11-21T00:43:24;2;2;0
83543;PMS5003;73487;54.448;-0.942;2023-11-21T00:46:24;1;1;0
83543;PMS5003;73487;54.448;-0.942;2023-11-21T00:49:24;3;3;1
83543;PMS5003;73487;54.448;-0.942;2023-11-21T00:52:24;2;1;0
83543;PMS5003;73487;54.448;-0.942;2023-11-21T00:55:24;0;0;0
83543;PMS5003;73487;54.448;-0.942;2023-11-21T00:58:24;1;1;0
83543;PMS5003;73487;54.448;-0.942;2023-11-21T01:01:24;1;1;0
83543;PMS5003;73487;54.448;-0.942;2023-11-21T01:04:24;2;1;0
83543;PMS5003;73487;54.448;-0.942;2023-11-21T01:07:24;1;1;0
83543;PMS5003;73487;54.448;-0.942;2023-11-21T01:10:24;1;1;0
83543;PMS5003;73487;54.448;-0.942;2023-11-21T01:13:24;5;2;0
83543;PMS5003;73487;54.448;-0.942;2023-11-21T01:16:24;2;2;0
83543;PMS5003;73487;54.448;-0.942;2023-11-21T01:19:24;1;1;0
83543;PMS5003;73487;54.448;-0.942;2023-11-21T01:22:24;2;2;0
83543;PMS5003;73487;54.448;-0.942;2023-11-21T01:25:24;2;2;1
83543;PMS5003;73487;54.448;-0.942;2023-11-21T01:28:24;2;2;1
83543;PMS5003;73487;54.448;-0.942;2023-11-21T01:31:24;1;0;0
83543;PMS5003;73487;54.448;-0.942;2023-11-21T01:34:24;0;0;0
83543;PMS5003;73487;54.448;-0.942;2023-11-21T01:37:24;1;1;1
83543;PMS5003;73487;54.448;-0.942;2023-11-21T01:40:24;1;1;0
83543;PMS5003;73487;54.448;-0.942;2023-11-21T01:43:24;0;0;0
83543;PMS5003;73487;54.448;-0.942;2023-11-21T01:46:24;0;0;0
83543;PMS5003;73487;54.448;-0.942;2023-11-21T01:49:24;0;0;0
83543;PMS5003;73487;54.448;-0.942;2023-11-21T01:52:24;0;0;0
83543;PMS5003;73487;54.448;-0.942;2023-11-21T01:55:24;2;1;1
83543;PMS5003;73487;54.448;-0.942;2023-11-21T01:58:24;0;0;0
83543;PMS5003;73487;54.448;-0.942;2023-11-21T02:01:24;1;0;0
83543;PMS5003;73487;54.448;-0.942;2023-11-21T02:04:24;0;0;0
83543;PMS5003;73487;54.448;-0.942;2023-11-21T02:07:24;0;0;0
83543;PMS5003;73487;54.448;-0.942;2023-11-21T02:10:24;1;0;0
83543;PMS5003;73487;54.448;-0.942;2023-11-21T02:13:24;1;1;0
83543;PMS5003;73487;54.448;-0.942;2023-11-21T02:16:24;2;1;0
83543;PMS5003;73487;54.448;-0.942;2023-11-21T02:19:24;5;1;0
83543;PMS5003;73487;54.448;-0.942;2023-11-21T02:22:24;5;2;0
83543;PMS5003;73487;54.448;-0.942;2023-11-21T02:25:33;2;1;0
83543;PMS5003;73487;54.448;-0.942;2023-11-21T02:28:24;6;2;0
83543;PMS5003;73487;54.448;-0.942;2023-11-21T02:31:24;8;4;0
83543;PMS5003;73487;54.448;-0.942;2023-11-21T02:34:24;28;16;4
83543;PMS5003;73487;54.448;-0.942;2023-11-21T02:37:24;14;7;0
83543;PMS5003;73487;54.448;-0.942;2023-11-21T02:40:24;1;1;0
83543;PMS5003;73487;54.448;-0.942;2023-11-21T02:43:24;2;2;0
83543;PMS5003;73487;54.448;-0.942;2023-11-21T02:46:24;0;0;0
83543;PMS5003;73487;54.448;-0.942;2023-11-21T02:49:24;0;0;0
83543;PMS5003;73487;54.448;-0.942;2023-11-21T02:52:24;0;0;0
83543;PMS5003;73487;54.448;-0.942;2023-11-21T02:55:24;0;0;0
83543;PMS5003;73487;54.448;-0.942;2023-11-21T02:58:24;0;0;0
83543;PMS5003;73487;54.448;-0.942;2023-11-21T03:01:24;0;0;0
83543;PMS5003;73487;54.448;-0.942;2023-11-21T03:04:24;0;0;0
83543;PMS5003;73487;54.448;-0.942;2023-11-21T03:07:24;0;0;0
83543;PMS5003;73487;54.448;-0.942;2023-11-21T03:10:24;0;0;0
83543;PMS5003;73487;54.448;-0.942;2023-11-21T03:13:24;0;0;0
83543;PMS5003;73487;54.448;-0.942;2023-11-21T03:16:24;0;0;0
83543;PMS5003;73487;54.448;-0.942;2023-11-21T03:19:24;1;0;0
83543;PMS5003;73487;54.448;-0.942;2023-11-21T03:22:24;1;1;0
83543;PMS5003;73487;54.448;-0.942;2023-11-21T03:25:24;0;0;0
83543;PMS5003;73487;54.448;-0.942;2023-11-21T03:28:24;0;0;0
83543;PMS5003;73487;54.448;-0.942;2023-11-21T03:31:24;0;0;0
83543;PMS5003;73487;54.448;-0.942;2023-11-21T03:34:25;0;0;0
83543;PMS5003;73487;54.448;-0.942;2023-11-21T03:37:24;0;0;0
83543;PMS5003;73487;54.448;-0.942;2023-11-21T03:40:54;1;1;0
83543;PMS5003;73487;54.448;-0.942;2023-11-21T03:43:54;2;1;1
83543;PMS5003;73487;54.448;-0.942;2023-11-21T03:46:54;0;0;0
83543;PMS5003;73487;54.448;-0.942;2023-11-21T03:49:54;1;1;1
83543;PMS5003;73487;54.448;-0.942;2023-11-21T03:52:54;4;2;1
83543;PMS5003;73487;54.448;-0.942;2023-11-21T03:55:54;4;2;2
83543;PMS5003;73487;54.448;-0.942;2023-11-21T03:58:54;4;3;2
83543;PMS5003;73487;54.448;-0.942;2023-11-21T04:01:57;3;3;3
83543;PMS5003;73487;54.448;-0.942;2023-11-21T04:04:54;4;2;2
83543;PMS5003;73487;54.448;-0.942;2023-11-21T04:07:54;3;3;2
83543;PMS5003;73487;54.448;-0.942;2023-11-21T04:10:54;1;1;0
83543;PMS5003;73487;54.448;-0.942;2023-11-21T04:13:54;2;1;1
83543;PMS5003;73487;54.448;-0.942;2023-11-21T04:16:54;1;1;1
83543;PMS5003;73487;54.448;-0.942;2023-11-21T04:19:54;5;4;1
83543;PMS5003;73487;54.448;-0.942;2023-11-21T04:22:54;2;2;0
83543;PMS5003;73487;54.448;-0.942;2023-11-21T04:25:54;4;3;1
83543;PMS5003;73487;54.448;-0.942;2023-11-21T04:28:54;3;2;2
83543;PMS5003;73487;54.448;-0.942;2023-11-21T04:31:54;2;2;1
83543;PMS5003;73487;54.448;-0.942;2023-11-21T04:34:54;2;1;1
83543;PMS5003;73487;54.448;-0.942;2023-11-21T04:37:54;2;2;1
83543;PMS5003;73487;54.448;-0.942;2023-11-21T04:40:54;2;1;1
83543;PMS5003;73487;54.448;-0.942;2023-11-21T04:43:54;2;1;0
83543;PMS5003;73487;54.448;-0.942;2023-11-21T04:46:54;2;2;1
83543;PMS5003;73487;54.448;-0.942;2023-11-21T04:49:54;2;1;1
83543;PMS5003;73487;54.448;-0.942;2023-11-21T04:52:54;1;1;1
83543;PMS5003;73487;54.448;-0.942;2023-11-21T04:55:54;3;3;1
83543;PMS5003;73487;54.448;-0.942;2023-11-21T04:58:54;2;2;1
83543;PMS5003;73487;54.448;-0.942;2023-11-21T05:01:54;3;2;1
83543;PMS5003;73487;54.448;-0.942;2023-11-21T05:04:54;2;1;1
83543;PMS5003;73487;54.448;-0.942;2023-11-21T05:07:54;4;4;1
83543;PMS5003;73487;54.448;-0.942;2023-11-21T05:10:54;4;3;1
83543;PMS5003;73487;54.448;-0.942;2023-11-21T05:13:54;5;4;2
83543;PMS5003;73487;54.448;-0.942;2023-11-21T05:16:54;3;3;2
83543;PMS5003;73487;54.448;-0.942;2023-11-21T05:19:54;2;1;1
83543;PMS5003;73487;54.448;-0.942;2023-11-21T05:22:54;4;2;1
83543;PMS5003;73487;54.448;-0.942;2023-11-21T05:25:54;4;3;1
83543;PMS5003;73487;54.448;-0.942;2023-11-21T05:28:54;5;3;2
83543;PMS5003;73487;54.448;-0.942;2023-11-21T05:31:54;5;3;0
83543;PMS5003;73487;54.448;-0.942;2023-11-21T05:34:54;5;5;2
83543;PMS5003;73487;54.448;-0.942;2023-11-21T05:37:54;4;3;0
83543;PMS5003;73487;54.448;-0.942;2023-11-21T05:40:54;4;4;2
83543;PMS5003;73487;54.448;-0.942;2023-11-21T05:43:54;3;3;1
83543;PMS5003;73487;54.448;-0.942;2023-11-21T05:46:54;4;3;1
83543;PMS5003;73487;54.448;-0.942;2023-11-21T05:49:54;4;3;1
83543;PMS5003;73487;54.448;-0.942;2023-11-21T05:52:54;5;4;2
83543;PMS5003;73487;54.448;-0.942;2023-11-21T05:55:54;9;5;1
83543;PMS5003;73487;54.448;-0.942;2023-11-21T05:58:54;3;3;1
83543;PMS5003;73487;54.448;-0.942;2023-11-21T06:01:54;2;1;0
83543;PMS5003;73487;54.448;-0.942;2023-11-21T06:04:54;2;2;0
83543;PMS5003;73487;54.448;-0.942;2023-11-21T06:07:55;3;2;0
83543;PMS5003;73487;54.448;-0.942;2023-11-21T06:10:54;2;2;1
83543;PMS5003;73487;54.448;-0.942;2023-11-21T06:13:54;5;4;2
83543;PMS5003;73487;54.448;-0.942;2023-11-21T06:16:54;2;2;0
83543;PMS5003;73487;54.448;-0.942;2023-11-21T06:19:54;2;1;0
83543;PMS5003;73487;54.448;-0.942;2023-11-21T06:22:54;3;2;1
83543;PMS5003;73487;54.448;-0.942;2023-11-21T06:25:54;1;1;0
83543;PMS5003;73487;54.448;-0.942;2023-11-21T06:28:54;1;0;0
83543;PMS5003;73487;54.448;-0.942;2023-11-21T06:31:54;3;2;1
83543;PMS5003;73487;54.448;-0.942;2023-11-21T06:34:54;3;3;1
83543;PMS5003;73487;54.448;-0.942;2023-11-21T06:37:54;5;2;1
83543;PMS5003;73487;54.448;-0.942;2023-11-21T06:40:54;7;4;1
83543;PMS5003;73487;54.448;-0.942;2023-11-21T06:43:54;7;4;1
83543;PMS5003;73487;54.448;-0.942;2023-11-21T06:46:54;3;3;1
83543;PMS5003;73487;54.448;-0.942;2023-11-21T06:49:54;3;2;0
83543;PMS5003;73487;54.448;-0.942;2023-11-21T06:52:54;7;4;2
83543;PMS5003;73487;54.448;-0.942;2023-11-21T06:55:54;5;4;2
83543;PMS5003;73487;54.448;-0.942;2023-11-21T06:58:54;1;1;0
83543;PMS5003;73487;54.448;-0.942;2023-11-21T07:01:54;2;2;0
83543;PMS5003;73487;54.448;-0.942;2023-11-21T07:04:54;3;3;1
83543;PMS5003;73487;54.448;-0.942;2023-11-21T07:08:24;1;1;0
83543;PMS5003;73487;54.448;-0.942;2023-11-21T07:11:24;3;1;1
83543;PMS5003;73487;54.448;-0.942;2023-11-21T07:14:24;1;1;0
83543;PMS5003;73487;54.448;-0.942;2023-11-21T07:17:24;2;1;0
83543;PMS5003;73487;54.448;-0.942;2023-11-21T07:20:24;1;0;0
83543;PMS5003;73487;54.448;-0.942;2023-11-21T07:23:24;1;0;0
83543;PMS5003;73487;54.448;-0.942;2023-11-21T07:26:24;1;1;0
83543;PMS5003;73487;54.448;-0.942;2023-11-21T07:29:24;1;1;0
83543;PMS5003;73487;54.448;-0.942;2023-11-21T07:32:24;5;4;1
83543;PMS5003;73487;54.448;-0.942;2023-11-21T07:35:24;3;2;1
83543;PMS5003;73487;54.448;-0.942;2023-11-21T07:38:24;1;0;0
83543;PMS5003;73487;54.448;-0.942;2023-11-21T07:41:24;1;1;0
83543;PMS5003;73487;54.448;-0.942;2023-11-21T07:44:24;2;1;0
83543;PMS5003;73487;54.448;-0.942;2023-11-21T07:47:24;2;1;0
83543;PMS5003;73487;54.448;-0.942;2023-11-21T07:50:24;2;1;1
83543;PMS5003;73487;54.448;-0.942;2023-11-21T07:53:24;5;5;2
83543;PMS5003;73487;54.448;-0.942;2023-11-21T07:56:24;3;1;0
83543;PMS5003;73487;54.448;-0.942;2023-11-21T07:59:24;3;2;0
83543;PMS5003;73487;54.448;-0.942;2023-11-21T08:02:24;2;1;0
83543;PMS5003;73487;54.448;-0.942;2023-11-21T08:05:24;2;1;1
83543;PMS5003;73487;54.448;-0.942;2023-11-21T08:08:24;4;4;2
83543;PMS5003;73487;54.448;-0.942;2023-11-21T08:11:24;3;2;0
83543;PMS5003;73487;54.448;-0.942;2023-11-21T08:14:24;2;2;1
83543;PMS5003;73487;54.448;-0.942;2023-11-21T08:17:24;2;1;0
83543;PMS5003;73487;54.448;-0.942;2023-11-21T08:20:24;3;1;0
83543;PMS5003;73487;54.448;-0.942;2023-11-21T08:23:24;2;2;0
83543;PMS5003;73487;54.448;-0.942;2023-11-21T08:26:24;1;0;0
83543;PMS5003;73487;54.448;-0.942;2023-11-21T08:29:24;2;2;0
83543;PMS5003;73487;54.448;-0.942;2023-11-21T08:32:24;1;0;0
83543;PMS5003;73487;54.448;-0.942;2023-11-21T08:35:24;4;3;2
83543;PMS5003;73487;54.448;-0.942;2023-11-21T08:38:24;2;2;1
83543;PMS5003;73487;54.448;-0.942;2023-11-21T08:41:24;3;3;0
83543;PMS5003;73487;54.448;-0.942;2023-11-21T08:44:24;4;3;1
83543;PMS5003;73487;54.448;-0.942;2023-11-21T08:47:24;3;2;1
83543;PMS5003;73487;54.448;-0.942;2023-11-21T08:50:24;4;3;1
83543;PMS5003;73487;54.448;-0.942;2023-11-21T08:53:24;3;3;2
83543;PMS5003;73487;54.448;-0.942;2023-11-21T08:56:24;3;2;1
83543;PMS5003;73487;54.448;-0.942;2023-11-21T08:59:24;3;2;1
83543;PMS5003;73487;54.448;-0.942;2023-11-21T09:02:27;4;4;2
83543;PMS5003;73487;54.448;-0.942;2023-11-21T09:05:24;4;2;1
83543;PMS5003;73487;54.448;-0.942;2023-11-21T09:08:24;3;2;1
83543;PMS5003;73487;54.448;-0.942;2023-11-21T09:11:24;1;1;0
83543;PMS5003;73487;54.448;-0.942;2023-11-21T09:14:24;2;2;0
83543;PMS5003;73487;54.448;-0.942;2023-11-21T09:17:24;4;2;1
83543;PMS5003;73487;54.448;-0.942;2023-11-21T09:20:24;2;2;1
83543;PMS5003;73487;54.448;-0.942;2023-11-21T09:23:24;3;3;1
83543;PMS5003;73487;54.448;-0.942;2023-11-21T09:26:24;2;1;0
83543;PMS5003;73487;54.448;-0.942;2023-11-21T09:29:24;1;1;0
83543;PMS5003;73487;54.448;-0.942;2023-11-21T09:32:24;2;2;0
83543;PMS5003;73487;54.448;-0.942;2023-11-21T09:35:24;1;0;0
83543;PMS5003;73487;54.448;-0.942;2023-11-21T09:38:24;1;1;0
83543;PMS5003;73487;54.448;-0.942;2023-11-21T09:41:33;2;2;1
83543;PMS5003;73487;54.448;-0.942;2023-11-21T09:47:24;1;1;0
83543;PMS5003;73487;54.448;-0.942;2023-11-21T09:50:24;4;2;1
83543;PMS5003;73487;54.448;-0.942;2023-11-21T09:53:24;3;3;1
83543;PMS5003;73487;54.448;-0.942;2023-11-21T09:56:24;1;1;0
83543;PMS5003;73487;54.448;-0.942;2023-11-21T09:59:24;0;0;0
83543;PMS5003;73487;54.448;-0.942;2023-11-21T10:02:25;2;1;0
83543;PMS5003;73487;54.448;-0.942;2023-11-21T10:05:24;1;0;0
83543;PMS5003;73487;54.448;-0.942;2023-11-21T10:08:24;0;0;0
83543;PMS5003;73487;54.448;-0.942;2023-11-21T10:11:24;2;1;0
83543;PMS5003;73487;54.448;-0.942;2023-11-21T10:14:24;2;0;0
83543;PMS5003;73487;54.448;-0.942;2023-11-21T10:17:24;1;0;0
83543;PMS5003;73487;54.448;-0.942;2023-11-21T10:20:24;1;1;0
83543;PMS5003;73487;54.448;-0.942;2023-11-21T10:23:24;1;1;0
83543;PMS5003;73487;54.448;-0.942;2023-11-21T10:26:25;0;0;0
83543;PMS5003;73487;54.448;-0.942;2023-11-21T10:29:24;4;1;0
83543;PMS5003;73487;54.448;-0.942;2023-11-21T10:32:58;0;0;0
83543;PMS5003;73487;54.448;-0.942;2023-11-21T10:35:54;2;2;0
83543;PMS5003;73487;54.448;-0.942;2023-11-21T10:38:54;2;0;0
83543;PMS5003;73487;54.448;-0.942;2023-11-21T10:41:54;1;0;0
83543;PMS5003;73487;54.448;-0.942;2023-11-21T10:44:54;0;0;0
83543;PMS5003;73487;54.448;-0.942;2023-11-21T10:47:54;1;0;0
83543;PMS5003;73487;54.448;-0.942;2023-11-21T10:50:54;0;0;0
83543;PMS5003;73487;54.448;-0.942;2023-11-21T10:53:54;1;1;0
83543;PMS5003;73487;54.448;-0.942;2023-11-21T10:56:56;1;1;0
83543;PMS5003;73487;54.448;-0.942;2023-11-21T10:59:54;1;1;0
83543;PMS5003;73487;54.448;-0.942;2023-11-21T11:02:54;2;2;0
83543;PMS5003;73487;54.448;-0.942;2023-11-21T11:05:54;0;0;0
83543;PMS5003;73487;54.448;-0.942;2023-11-21T11:08:54;2;1;0
83543;PMS5003;73487;54.448;-0.942;2023-11-21T11:11:54;1;1;0
83543;PMS5003;73487;54.448;-0.942;2023-11-21T11:14:54;2;2;1
83543;PMS5003;73487;54.448;-0.942;2023-11-21T11:17:54;1;1;0
83543;PMS5003;73487;54.448;-0.942;2023-11-21T11:20:54;1;1;0
83543;PMS5003;73487;54.448;-0.942;2023-11-21T11:27:00;0;0;0
83543;PMS5003;73487;54.448;-0.942;2023-11-21T11:36:00;1;1;0
83543;PMS5003;73487;54.448;-0.942;2023-11-21T11:38:54;2;1;0
83543;PMS5003;73487;54.448;-0.942;2023-11-21T11:41:55;4;2;1
83543;PMS5003;73487;54.448;-0.942;2023-11-21T11:44:54;2;2;1
83543;PMS5003;73487;54.448;-0.942;2023-11-21T11:47:57;2;1;1
83543;PMS5003;73487;54.448;-0.942;2023-11-21T11:53:54;1;1;1
83543;PMS5003;73487;54.448;-0.942;2023-11-21T11:56:54;2;2;1
83543;PMS5003;73487;54.448;-0.942;2023-11-21T12:02:55;1;1;0
83543;PMS5003;73487;54.448;-0.942;2023-11-21T12:05:54;0;0;0
83543;PMS5003;73487;54.448;-0.942;2023-11-21T12:08:54;0;0;0
83543;PMS5003;73487;54.448;-0.942;2023-11-21T12:11:55;1;1;1
83543;PMS5003;73487;54.448;-0.942;2023-11-21T12:14:54;2;2;0
83543;PMS5003;73487;54.448;-0.942;2023-11-21T12:17:54;3;2;1
83543;PMS5003;73487;54.448;-0.942;2023-11-21T12:20:54;1;1;1
83543;PMS5003;73487;54.448;-0.942;2023-11-21T12:23:54;3;3;1
83543;PMS5003;73487;54.448;-0.942;2023-11-21T12:26:54;1;0;0
83543;PMS5003;73487;54.448;-0.942;2023-11-21T12:29:54;1;1;1
83543;PMS5003;73487;54.448;-0.942;2023-11-21T12:32:55;1;1;1
83543;PMS5003;73487;54.448;-0.942;2023-11-21T12:35:54;1;1;0
83543;PMS5003;73487;54.448;-0.942;2023-11-21T12:38:54;1;1;0
83543;PMS5003;73487;54.448;-0.942;2023-11-21T12:41:54;2;1;0
83543;PMS5003;73487;54.448;-0.942;2023-11-21T12:47:59;1;1;0
83543;PMS5003;73487;54.448;-0.942;2023-11-21T12:50:54;1;0;0
83543;PMS5003;73487;54.448;-0.942;2023-11-21T12:53:54;1;0;0
83543;PMS5003;73487;54.448;-0.942;2023-11-21T12:56:54;1;1;0
83543;PMS5003;73487;54.448;-0.942;2023-11-21T12:59:57;2;1;0
83543;PMS5003;73487;54.448;-0.942;2023-11-21T13:02:54;1;0;0
83543;PMS5003;73487;54.448;-0.942;2023-11-21T13:05:55;0;0;0
83543;PMS5003;73487;54.448;-0.942;2023-11-21T13:08:54;1;1;0
83543;PMS5003;73487;54.448;-0.942;2023-11-21T13:11:59;2;2;0
83543;PMS5003;73487;54.448;-0.942;2023-11-21T13:14:54;1;0;0
83543;PMS5003;73487;54.448;-0.942;2023-11-21T13:17:54;2;1;0
83543;PMS5003;73487;54.448;-0.942;2023-11-21T13:20:55;2;1;0
83543;PMS5003;73487;54.448;-0.942;2023-11-21T13:23:54;2;1;0
83543;PMS5003;73487;54.448;-0.942;2023-11-21T13:26:54;1;1;0
83543;PMS5003;73487;54.448;-0.942;2023-11-21T13:29:54;0;0;0
83543;PMS5003;73487;54.448;-0.942;2023-11-21T13:32:54;0;0;0
83543;PMS5003;73487;54.448;-0.942;2023-11-21T13:35:54;1;1;0
83543;PMS5003;73487;54.448;-0.942;2023-11-21T13:38:54;2;1;1
83543;PMS5003;73487;54.448;-0.942;2023-11-21T13:41:54;0;0;0
83543;PMS5003;73487;54.448;-0.942;2023-11-21T13:44:57;2;1;1
83543;PMS5003;73487;54.448;-0.942;2023-11-21T13:47:54;1;1;0
83543;PMS5003;73487;54.448;-0.942;2023-11-21T13:50:54;1;1;1
83543;PMS5003;73487;54.448;-0.942;2023-11-21T13:53:54;5;2;1
83543;PMS5003;73487;54.448;-0.942;2023-11-21T13:56:54;2;1;0
83543;PMS5003;73487;54.448;-0.942;2023-11-21T14:00:24;2;2;1
83543;PMS5003;73487;54.448;-0.942;2023-11-21T14:03:24;1;1;0
83543;PMS5003;73487;54.448;-0.942;2023-11-21T14:06:24;2;1;0
83543;PMS5003;73487;54.448;-0.942;2023-11-21T14:09:24;1;1;0
83543;PMS5003;73487;54.448;-0.942;2023-11-21T14:12:24;2;2;1
83543;PMS5003;73487;54.448;-0.942;2023-11-21T14:15:24;3;2;1
83543;PMS5003;73487;54.448;-0.942;2023-11-21T14:18:24;2;1;0
83543;PMS5003;73487;54.448;-0.942;2023-11-21T14:21:24;1;1;0
83543;PMS5003;73487;54.448;-0.942;2023-11-21T14:24:24;3;2;0
83543;PMS5003;73487;54.448;-0.942;2023-11-21T14:27:24;3;2;1
83543;PMS5003;73487;54.448;-0.942;2023-11-21T14:30:24;3;2;1
83543;PMS5003;73487;54.448;-0.942;2023-11-21T14:33:24;1;1;0
83543;PMS5003;73487;54.448;-0.942;2023-11-21T14:36:24;1;1;0
83543;PMS5003;73487;54.448;-0.942;2023-11-21T14:39:24;2;1;1
83543;PMS5003;73487;54.448;-0.942;2023-11-21T14:42:24;2;2;1
83543;PMS5003;73487;54.448;-0.942;2023-11-21T14:45:24;2;2;1
83543;PMS5003;73487;54.448;-0.942;2023-11-21T14:48:24;3;2;1
83543;PMS5003;73487;54.448;-0.942;2023-11-21T14:51:25;1;1;0
83543;PMS5003;73487;54.448;-0.942;2023-11-21T14:54:24;1;1;0
83543;PMS5003;73487;54.448;-0.942;2023-11-21T14:57:24;0;0;0
83543;PMS5003;73487;54.448;-0.942;2023-11-21T15:00:24;7;3;1
83543;PMS5003;73487;54.448;-0.942;2023-11-21T15:03:24;1;1;0
83543;PMS5003;73487;54.448;-0.942;2023-11-21T15:06:24;3;2;0
83543;PMS5003;73487;54.448;-0.942;2023-11-21T15:09:24;1;0;0
83543;PMS5003;73487;54.448;-0.942;2023-11-21T15:12:24;1;1;0
83543;PMS5003;73487;54.448;-0.942;2023-11-21T15:15:24;2;1;0
83543;PMS5003;73487;54.448;-0.942;2023-11-21T15:18:24;2;1;0
83543;PMS5003;73487;54.448;-0.942;2023-11-21T15:21:24;2;2;1
83543;PMS5003;73487;54.448;-0.942;2023-11-21T15:24:24;3;3;0
83543;PMS5003;73487;54.448;-0.942;2023-11-21T15:27:24;2;2;1
83543;PMS5003;73487;54.448;-0.942;2023-11-21T15:30:24;3;2;1
83543;PMS5003;73487;54.448;-0.942;2023-11-21T15:33:24;3;3;1
83543;PMS5003;73487;54.448;-0.942;2023-11-21T15:36:24;2;2;2
83543;PMS5003;73487;54.448;-0.942;2023-11-21T15:39:24;4;3;2
83543;PMS5003;73487;54.448;-0.942;2023-11-21T15:42:24;4;3;2
83543;PMS5003;73487;54.448;-0.942;2023-11-21T15:45:24;6;2;1
83543;PMS5003;73487;54.448;-0.942;2023-11-21T15:48:24;2;2;1
83543;PMS5003;73487;54.448;-0.942;2023-11-21T15:51:24;2;2;1
83543;PMS5003;73487;54.448;-0.942;2023-11-21T15:54:25;1;1;1
83543;PMS5003;73487;54.448;-0.942;2023-11-21T15:57:24;3;2;0
83543;PMS5003;73487;54.448;-0.942;2023-11-21T16:00:24;2;2;0
83543;PMS5003;73487;54.448;-0.942;2023-11-21T16:03:24;1;1;0
83543;PMS5003;73487;54.448;-0.942;2023-11-21T16:06:24;1;1;1
83543;PMS5003;73487;54.448;-0.942;2023-11-21T16:09:24;2;2;1
83543;PMS5003;73487;54.448;-0.942;2023-11-21T16:12:24;2;1;1
83543;PMS5003;73487;54.448;-0.942;2023-11-21T16:15:24;1;0;0
83543;PMS5003;73487;54.448;-0.942;2023-11-21T16:18:24;3;3;1
83543;PMS5003;73487;54.448;-0.942;2023-11-21T16:21:24;2;1;0
83543;PMS5003;73487;54.448;-0.942;2023-11-21T16:24:25;2;1;0
83543;PMS5003;73487;54.448;-0.942;2023-11-21T16:27:24;4;4;2
83543;PMS5003;73487;54.448;-0.942;2023-11-21T16:30:24;3;1;0
83543;PMS5003;73487;54.448;-0.942;2023-11-21T16:33:24;1;1;0
83543;PMS5003;73487;54.448;-0.942;2023-11-21T16:36:24;3;2;1
83543;PMS5003;73487;54.448;-0.942;2023-11-21T16:39:24;2;2;1
83543;PMS5003;73487;54.448;-0.942;2023-11-21T16:42:24;3;3;1
83543;PMS5003;73487;54.448;-0.942;2023-11-21T16:45:24;2;2;0
83543;PMS5003;73487;54.448;-0.942;2023-11-21T16:48:24;2;1;1
83543;PMS5003;73487;54.448;-0.942;2023-11-21T16:51:24;2;1;1
83543;PMS5003;73487;54.448;-0.942;2023-11-21T16:54:24;3;3;1
83543;PMS5003;73487;54.448;-0.942;2023-11-21T16:57:24;2;2;2
83543;PMS5003;73487;54.448;-0.942;2023-11-21T17:00:24;4;3;2
83543;PMS5003;73487;54.448;-0.942;2023-11-21T17:03:24;3;3;2
83543;PMS5003;73487;54.448;-0.942;2023-11-21T17:06:24;6;4;3
83543;PMS5003;73487;54.448;-0.942;2023-11-21T17:09:24;4;3;2
83543;PMS5003;73487;54.448;-0.942;2023-11-21T17:12:24;6;4;2
83543;PMS5003;73487;54.448;-0.942;2023-11-21T17:15:24;6;4;3
83543;PMS5003;73487;54.448;-0.942;2023-11-21T17:18:24;6;6;3
83543;PMS5003;73487;54.448;-0.942;2023-11-21T17:21:24;4;4;3
83543;PMS5003;73487;54.448;-0.942;2023-11-21T17:24:54;2;2;1
83543;PMS5003;73487;54.448;-0.942;2023-11-21T17:27:54;7;4;2
83543;PMS5003;73487;54.448;-0.942;2023-11-21T17:30:54;2;1;1
83543;PMS5003;73487;54.448;-0.942;2023-11-21T17:33:54;2;2;2
83543;PMS5003;73487;54.448;-0.942;2023-11-21T17:36:54;4;4;1
83543;PMS5003;73487;54.448;-0.942;2023-11-21T17:39:54;6;6;2
83543;PMS5003;73487;54.448;-0.942;2023-11-21T17:42:54;4;3;2
83543;PMS5003;73487;54.448;-0.942;2023-11-21T17:45:54;4;3;2
83543;PMS5003;73487;54.448;-0.942;2023-11-21T17:48:54;6;4;2
83543;PMS5003;73487;54.448;-0.942;2023-11-21T17:51:54;4;4;2
83543;PMS5003;73487;54.448;-0.942;2023-11-21T17:54:54;6;4;2
83543;PMS5003;73487;54.448;-0.942;2023-11-21T17:57:54;3;3;1
83543;PMS5003;73487;54.448;-0.942;2023-11-21T18:00:54;10;8;4
83543;PMS5003;73487;54.448;-0.942;2023-11-21T18:03:54;4;4;2
83543;PMS5003;73487;54.448;-0.942;2023-11-21T18:06:54;3;2;2
83543;PMS5003;73487;54.448;-0.942;2023-11-21T18:09:54;4;4;3
83543;PMS5003;73487;54.448;-0.942;2023-11-21T18:12:54;2;2;1
83543;PMS5003;73487;54.448;-0.942;2023-11-21T18:15:54;6;6;3
83543;PMS5003;73487;54.448;-0.942;2023-11-21T18:18:54;6;6;4
83543;PMS5003;73487;54.448;-0.942;2023-11-21T18:21:54;9;8;4
83543;PMS5003;73487;54.448;-0.942;2023-11-21T18:24:54;17;14;6
83543;PMS5003;73487;54.448;-0.942;2023-11-21T18:27:54;11;8;6
83543;PMS5003;73487;54.448;-0.942;2023-11-21T18:30:54;7;7;4
83543;PMS5003;73487;54.448;-0.942;2023-11-21T18:33:54;7;7;4
83543;PMS5003;73487;54.448;-0.942;2023-11-21T18:36:54;9;8;6
83543;PMS5003;73487;54.448;-0.942;2023-11-21T18:39:54;11;11;7
83543;PMS5003;73487;54.448;-0.942;2023-11-21T18:42:54;11;9;7
83543;PMS5003;73487;54.448;-0.942;2023-11-21T18:45:54;8;7;6
83543;PMS5003;73487;54.448;-0.942;2023-11-21T18:48:54;18;16;8
83543;PMS5003;73487;54.448;-0.942;2023-11-21T18:51:54;9;9;6
83543;PMS5003;73487;54.448;-0.942;2023-11-21T18:54:54;14;13;8
83543;PMS5003;73487;54.448;-0.942;2023-11-21T18:57:54;11;11;7
83543;PMS5003;73487;54.448;-0.942;2023-11-21T19:00:54;11;9;7
83543;PMS5003;73487;54.448;-0.942;2023-11-21T19:03:54;7;6;4
83543;PMS5003;73487;54.448;-0.942;2023-11-21T19:06:54;9;9;6
83543;PMS5003;73487;54.448;-0.942;2023-11-21T19:09:54;8;8;6
83543;PMS5003;73487;54.448;-0.942;2023-11-21T19:12:58;12;8;6
83543;PMS5003;73487;54.448;-0.942;2023-11-21T19:15:54;9;9;6
83543;PMS5003;73487;54.448;-0.942;2023-11-21T19:18:54;12;12;7
83543;PMS5003;73487;54.448;-0.942;2023-11-21T19:21:54;9;8;7
83543;PMS5003;73487;54.448;-0.942;2023-11-21T19:24:54;14;12;7
83543;PMS5003;73487;54.448;-0.942;2023-11-21T19:27:54;9;9;4
83543;PMS5003;73487;54.448;-0.942;2023-11-21T19:30:54;12;12;8
83543;PMS5003;73487;54.448;-0.942;2023-11-21T19:33:54;11;11;8
83543;PMS5003;73487;54.448;-0.942;2023-11-21T19:36:54;11;9;7
83543;PMS5003;73487;54.448;-0.942;2023-11-21T19:39:54;12;9;6
83543;PMS5003;73487;54.448;-0.942;2023-11-21T19:42:54;11;11;8
83543;PMS5003;73487;54.448;-0.942;2023-11-21T19:45:54;13;12;8
83543;PMS5003;73487;54.448;-0.942;2023-11-21T19:48:54;9;9;4
83543;PMS5003;73487;54.448;-0.942;2023-11-21T19:51:54;9;9;6
83543;PMS5003;73487;54.448;-0.942;2023-11-21T19:54:54;12;9;6
83543;PMS5003;73487;54.448;-0.942;2023-11-21T19:57:54;8;7;3
83543;PMS5003;73487;54.448;-0.942;2023-11-21T20:00:54;9;8;4
83543;PMS5003;73487;54.448;-0.942;2023-11-21T20:03:54;8;6;3
83543;PMS5003;73487;54.448;-0.942;2023-11-21T20:06:54;15;9;7
83543;PMS5003;73487;54.448;-0.942;2023-11-21T20:09:54;4;4;3
83543;PMS5003;73487;54.448;-0.942;2023-11-21T20:12:54;8;7;4
83543;PMS5003;73487;54.448;-0.942;2023-11-21T20:15:54;7;6;4